sensor_id;sensor_type;location;lat;lon;timestamp;pressure;altitude;pressure_sealevel;temperature;humidity
59417;BME280;45222;52.458;20.914;2022-12-15T00:03:43;99541.62;;;-5.77;85.56
59417;BME280;45222;52.458;20.914;2022-12-15T00:07:48;99536.98;;;-5.69;85.46
59417;BME280;45222;52.458;20.914;2022-12-15T00:11:54;99534.92;;;-5.61;85.64
59417;BME280;45222;52.458;20.914;2022-12-15T00:15:59;99530.60;;;-5.58;85.58
59417;BME280;45222;52.458;20.914;2022-12-15T00:20:06;99527.14;;;-5.57;85.60
59417;BME280;45222;52.458;20.914;2022-12-15T00:24:11;99528.88;;;-5.58;85.53
59417;BME280;45222;52.458;20.914;2022-12-15T00:28:16;99532.33;;;-5.59;85.45
59417;BME280;45222;52.458;20.914;2022-12-15T00:32:22;99535.61;;;-5.63;85.41
59417;BME280;45222;52.458;20.914;2022-12-15T00:36:28;99529.89;;;-5.66;85.62
59417;BME280;45222;52.458;20.914;2022-12-15T00:40:33;99528.15;;;-5.68;85.58
59417;BME280;45222;52.458;20.914;2022-12-15T00:44:21;99533.17;;;-5.70;85.68
59417;BME280;45222;52.458;20.914;2022-12-15T00:48:09;99535.58;;;-5.73;85.53
59417;BME280;45222;52.458;20.914;2022-12-15T00:51:56;99531.77;;;-5.74;85.55
59417;BME280;45222;52.458;20.914;2022-12-15T00:56:01;99531.75;;;-5.77;85.80
59417;BME280;45222;52.458;20.914;2022-12-15T01:00:08;99529.15;;;-5.77;85.73
59417;BME280;45222;52.458;20.914;2022-12-15T01:04:14;99530.39;;;-5.71;85.66
59417;BME280;45222;52.458;20.914;2022-12-15T01:08:19;99530.77;;;-5.62;85.75
59417;BME280;45222;52.458;20.914;2022-12-15T01:12:24;99527.87;;;-5.50;85.94
59417;BME280;45222;52.458;20.914;2022-12-15T01:16:30;99526.84;;;-5.42;85.87
59417;BME280;45222;52.458;20.914;2022-12-15T01:20:35;99523.40;;;-5.37;85.77
59417;BME280;45222;52.458;20.914;2022-12-15T01:24:22;99511.25;;;-5.39;85.51
59417;BME280;45222;52.458;20.914;2022-12-15T01:28:10;99511.59;;;-5.42;85.39
59417;BME280;45222;52.458;20.914;2022-12-15T01:31:57;99506.91;;;-5.46;85.47
59417;BME280;45222;52.458;20.914;2022-12-15T01:35:53;99509.84;;;-5.50;85.29
59417;BME280;45222;52.458;20.914;2022-12-15T01:39:40;99516.59;;;-5.54;85.37
59417;BME280;45222;52.458;20.914;2022-12-15T01:43:45;99512.94;;;-5.59;85.51
59417;BME280;45222;52.458;20.914;2022-12-15T01:47:33;99510.66;;;-5.65;85.61
59417;BME280;45222;52.458;20.914;2022-12-15T01:51:26;99512.04;;;-5.67;85.59
59417;BME280;45222;52.458;20.914;2022-12-15T01:55:16;99506.33;;;-5.69;85.65
59417;BME280;45222;52.458;20.914;2022-12-15T01:59:06;99510.14;;;-5.70;85.77
59417;BME280;45222;52.458;20.914;2022-12-15T02:02:56;99509.09;;;-5.71;85.62
59417;BME280;45222;52.458;20.914;2022-12-15T02:06:45;99511.00;;;-5.70;85.57
59417;BME280;45222;52.458;20.914;2022-12-15T02:14:46;99508.77;;;-5.63;85.90
59417;BME280;45222;52.458;20.914;2022-12-15T02:18:45;99509.31;;;-5.51;85.90
59417;BME280;45222;52.458;20.914;2022-12-15T02:22:48;99512.63;;;-5.44;85.98
59417;BME280;45222;52.458;20.914;2022-12-15T02:31:08;99515.09;;;-5.26;85.84
59417;BME280;45222;52.458;20.914;2022-12-15T02:35:22;99520.80;;;-5.32;85.33
59417;BME280;45222;52.458;20.914;2022-12-15T02:39:12;99519.74;;;-5.42;85.24
59417;BME280;45222;52.458;20.914;2022-12-15T02:43:02;99523.17;;;-5.51;85.49
59417;BME280;45222;52.458;20.914;2022-12-15T02:47:01;99522.31;;;-5.52;85.42
59417;BME280;45222;52.458;20.914;2022-12-15T02:51:06;99525.09;;;-5.50;85.73
59417;BME280;45222;52.458;20.914;2022-12-15T02:55:10;99527.52;;;-5.43;85.84
59417;BME280;45222;52.458;20.914;2022-12-15T02:59:03;99523.23;;;-5.29;86.12
59417;BME280;45222;52.458;20.914;2022-12-15T03:02:56;99526.55;;;-5.19;85.88
59417;BME280;45222;52.458;20.914;2022-12-15T03:06:43;99520.85;;;-5.08;85.79
59417;BME280;45222;52.458;20.914;2022-12-15T03:10:31;99516.34;;;-5.04;85.62
59417;BME280;45222;52.458;20.914;2022-12-15T03:14:19;99516.36;;;-5.05;85.35
59417;BME280;45222;52.458;20.914;2022-12-15T03:18:08;99523.27;;;-5.05;85.58
59417;BME280;45222;52.458;20.914;2022-12-15T03:21:55;99523.80;;;-5.03;85.21
59417;BME280;45222;52.458;20.914;2022-12-15T03:25:45;99522.59;;;-5.04;85.11
59417;BME280;45222;52.458;20.914;2022-12-15T03:29:31;99524.15;;;-4.98;85.27
59417;BME280;45222;52.458;20.914;2022-12-15T03:33:18;99528.67;;;-4.90;85.37
59417;BME280;45222;52.458;20.914;2022-12-15T03:37:06;99536.64;;;-4.86;85.30
59417;BME280;45222;52.458;20.914;2022-12-15T03:40:54;99531.63;;;-4.83;84.88
59417;BME280;45222;52.458;20.914;2022-12-15T03:44:41;99536.46;;;-4.85;84.91
59417;BME280;45222;52.458;20.914;2022-12-15T03:48:28;99543.77;;;-4.84;85.32
59417;BME280;45222;52.458;20.914;2022-12-15T03:52:16;99544.28;;;-4.81;85.08
59417;BME280;45222;52.458;20.914;2022-12-15T03:56:04;99546.02;;;-4.86;84.70
59417;BME280;45222;52.458;20.914;2022-12-15T03:59:52;99551.89;;;-4.97;84.46
59417;BME280;45222;52.458;20.914;2022-12-15T04:03:40;99545.80;;;-5.08;84.70
59417;BME280;45222;52.458;20.914;2022-12-15T04:07:27;99549.61;;;-5.15;84.57
59417;BME280;45222;52.458;20.914;2022-12-15T04:11:15;99555.34;;;-5.20;84.78
59417;BME280;45222;52.458;20.914;2022-12-15T04:15:03;99552.20;;;-5.19;84.83
59417;BME280;45222;52.458;20.914;2022-12-15T04:18:50;99551.18;;;-5.11;85.61
59417;BME280;45222;52.458;20.914;2022-12-15T04:22:58;99556.06;;;-5.01;85.63
59417;BME280;45222;52.458;20.914;2022-12-15T04:26:45;99559.88;;;-4.95;85.50
59417;BME280;45222;52.458;20.914;2022-12-15T04:30:52;99560.93;;;-4.85;85.03
59417;BME280;45222;52.458;20.914;2022-12-15T04:34:58;99561.96;;;-4.94;84.73
59417;BME280;45222;52.458;20.914;2022-12-15T04:39:05;99566.47;;;-4.96;84.78
59417;BME280;45222;52.458;20.914;2022-12-15T04:43:09;99568.20;;;-4.97;85.06
59417;BME280;45222;52.458;20.914;2022-12-15T04:47:15;99572.88;;;-5.00;85.01
59417;BME280;45222;52.458;20.914;2022-12-15T04:51:20;99573.91;;;-5.03;85.09
59417;BME280;45222;52.458;20.914;2022-12-15T04:55:25;99570.09;;;-5.08;84.87
59417;BME280;45222;52.458;20.914;2022-12-15T04:59:30;99576.83;;;-5.14;84.96
59417;BME280;45222;52.458;20.914;2022-12-15T05:03:35;99587.91;;;-5.19;85.06
59417;BME280;45222;52.458;20.914;2022-12-15T05:07:40;99592.77;;;-5.22;85.07
59417;BME280;45222;52.458;20.914;2022-12-15T05:11:45;99595.36;;;-5.22;85.09
59417;BME280;45222;52.458;20.914;2022-12-15T05:15:50;99607.34;;;-5.15;85.27
59417;BME280;45222;52.458;20.914;2022-12-15T05:19:55;99611.88;;;-5.05;85.29
59417;BME280;45222;52.458;20.914;2022-12-15T05:24:01;99620.23;;;-4.95;85.50
59417;BME280;45222;52.458;20.914;2022-12-15T05:28:07;99631.16;;;-4.90;85.46
59417;BME280;45222;52.458;20.914;2022-12-15T05:32:12;99640.89;;;-4.88;85.27
59417;BME280;45222;52.458;20.914;2022-12-15T05:35:59;99642.27;;;-4.90;85.14
59417;BME280;45222;52.458;20.914;2022-12-15T05:39:47;99647.81;;;-4.90;85.22
59417;BME280;45222;52.458;20.914;2022-12-15T05:43:34;99651.09;;;-4.96;84.80
59417;BME280;45222;52.458;20.914;2022-12-15T05:47:21;99654.36;;;-5.02;85.02
59417;BME280;45222;52.458;20.914;2022-12-15T05:51:10;99660.23;;;-5.11;84.92
59417;BME280;45222;52.458;20.914;2022-12-15T05:54:58;99664.02;;;-5.21;85.18
59417;BME280;45222;52.458;20.914;2022-12-15T05:58:45;99666.59;;;-5.26;85.03
59417;BME280;45222;52.458;20.914;2022-12-15T06:02:32;99676.63;;;-5.27;85.30
59417;BME280;45222;52.458;20.914;2022-12-15T06:06:20;99689.66;;;-5.21;85.60
59417;BME280;45222;52.458;20.914;2022-12-15T06:10:10;99700.62;;;-5.13;85.47
59417;BME280;45222;52.458;20.914;2022-12-15T06:13:58;99703.09;;;-5.02;85.81
59417;BME280;45222;52.458;20.914;2022-12-15T06:17:45;99711.21;;;-5.05;85.41
59417;BME280;45222;52.458;20.914;2022-12-15T06:21:34;99713.61;;;-5.16;85.45
59417;BME280;45222;52.458;20.914;2022-12-15T06:25:22;99722.25;;;-5.23;85.61
59417;BME280;45222;52.458;20.914;2022-12-15T06:29:11;99730.02;;;-5.25;85.80
59417;BME280;45222;52.458;20.914;2022-12-15T06:32:59;99735.38;;;-5.29;85.71
59417;BME280;45222;52.458;20.914;2022-12-15T06:36:46;99745.23;;;-5.33;85.65
59417;BME280;45222;52.458;20.914;2022-12-15T06:40:34;99751.13;;;-5.34;85.80
59417;BME280;45222;52.458;20.914;2022-12-15T06:44:21;99752.50;;;-5.35;85.72
59417;BME280;45222;52.458;20.914;2022-12-15T06:48:09;99761.49;;;-5.37;85.75
59417;BME280;45222;52.458;20.914;2022-12-15T06:51:56;99770.52;;;-5.37;85.87
59417;BME280;45222;52.458;20.914;2022-12-15T06:55:44;99771.21;;;-5.37;85.84
59417;BME280;45222;52.458;20.914;2022-12-15T06:59:32;99781.64;;;-5.31;85.64
59417;BME280;45222;52.458;20.914;2022-12-15T07:03:20;99786.55;;;-5.25;85.81
59417;BME280;45222;52.458;20.914;2022-12-15T07:07:08;99786.77;;;-5.13;86.01
59417;BME280;45222;52.458;20.914;2022-12-15T07:10:56;99795.17;;;-5.02;85.87
59417;BME280;45222;52.458;20.914;2022-12-15T07:14:44;99801.48;;;-4.90;85.95
59417;BME280;45222;52.458;20.914;2022-12-15T07:18:31;99806.35;;;-4.85;85.74
59417;BME280;45222;52.458;20.914;2022-12-15T07:22:18;99810.02;;;-4.79;85.31
59417;BME280;45222;52.458;20.914;2022-12-15T07:26:08;99817.49;;;-4.76;85.46
59417;BME280;45222;52.458;20.914;2022-12-15T07:29:55;99821.16;;;-4.74;85.22
59417;BME280;45222;52.458;20.914;2022-12-15T07:33:43;99824.80;;;-4.75;84.72
59417;BME280;45222;52.458;20.914;2022-12-15T07:37:31;99836.77;;;-4.75;84.67
59417;BME280;45222;52.458;20.914;2022-12-15T07:41:19;99839.22;;;-4.68;84.72
59417;BME280;45222;52.458;20.914;2022-12-15T07:45:07;99846.89;;;-4.60;84.98
59417;BME280;45222;52.458;20.914;2022-12-15T07:48:54;99859.59;;;-4.53;84.81
59417;BME280;45222;52.458;20.914;2022-12-15T07:52:41;99867.10;;;-4.46;85.01
59417;BME280;45222;52.458;20.914;2022-12-15T07:56:29;99865.89;;;-4.43;84.64
59417;BME280;45222;52.458;20.914;2022-12-15T08:00:17;99869.53;;;-4.43;84.29
59417;BME280;45222;52.458;20.914;2022-12-15T08:04:05;99868.14;;;-4.47;84.46
59417;BME280;45222;52.458;20.914;2022-12-15T08:07:53;99874.55;;;-4.46;84.40
59417;BME280;45222;52.458;20.914;2022-12-15T08:11:40;99883.94;;;-4.46;84.39
59417;BME280;45222;52.458;20.914;2022-12-15T08:15:28;99889.66;;;-4.42;84.28
59417;BME280;45222;52.458;20.914;2022-12-15T08:19:16;99895.77;;;-4.37;84.40
59417;BME280;45222;52.458;20.914;2022-12-15T08:23:04;99905.17;;;-4.33;84.09
59417;BME280;45222;52.458;20.914;2022-12-15T08:26:54;99914.91;;;-4.28;84.09
59417;BME280;45222;52.458;20.914;2022-12-15T08:30:46;99925.05;;;-4.10;84.25
59417;BME280;45222;52.458;20.914;2022-12-15T08:34:34;99927.55;;;-3.93;84.25
59417;BME280;45222;52.458;20.914;2022-12-15T08:38:22;99929.35;;;-3.77;84.14
59417;BME280;45222;52.458;20.914;2022-12-15T08:42:09;99942.05;;;-3.66;84.02
59417;BME280;45222;52.458;20.914;2022-12-15T08:45:57;99949.54;;;-3.58;83.63
59417;BME280;45222;52.458;20.914;2022-12-15T08:49:45;99957.38;;;-3.55;83.47
59417;BME280;45222;52.458;20.914;2022-12-15T08:53:33;99962.27;;;-3.46;83.21
59417;BME280;45222;52.458;20.914;2022-12-15T08:57:21;99957.92;;;-3.45;83.14
59417;BME280;45222;52.458;20.914;2022-12-15T09:01:10;99961.73;;;-3.48;82.56
59417;BME280;45222;52.458;20.914;2022-12-15T09:04:58;99962.25;;;-3.49;82.95
59417;BME280;45222;52.458;20.914;2022-12-15T09:08:45;99965.02;;;-3.53;82.94
59417;BME280;45222;52.458;20.914;2022-12-15T09:12:33;99974.08;;;-3.45;82.84
59417;BME280;45222;52.458;20.914;2022-12-15T09:16:21;99976.34;;;-3.42;82.90
59417;BME280;45222;52.458;20.914;2022-12-15T09:20:09;99977.58;;;-3.34;82.81
59417;BME280;45222;52.458;20.914;2022-12-15T09:23:58;99971.16;;;-3.22;83.03
59417;BME280;45222;52.458;20.914;2022-12-15T09:27:47;99971.87;;;-3.16;82.87
59417;BME280;45222;52.458;20.914;2022-12-15T09:31:37;99976.23;;;-3.10;82.49
59417;BME280;45222;52.458;20.914;2022-12-15T09:35:26;99976.40;;;-3.12;81.83
59417;BME280;45222;52.458;20.914;2022-12-15T09:39:13;99976.39;;;-3.13;81.69
59417;BME280;45222;52.458;20.914;2022-12-15T09:43:02;99979.35;;;-3.13;81.40
59417;BME280;45222;52.458;20.914;2022-12-15T09:46:59;99989.45;;;-3.10;81.06
59417;BME280;45222;52.458;20.914;2022-12-15T09:50:49;99989.08;;;-3.14;81.19
59417;BME280;45222;52.458;20.914;2022-12-15T09:54:38;99992.23;;;-3.11;81.71
59417;BME280;45222;52.458;20.914;2022-12-15T09:58:37;99997.61;;;-3.17;81.54
59417;BME280;45222;52.458;20.914;2022-12-15T10:02:46;100006.46;;;-3.21;81.38
59417;BME280;45222;52.458;20.914;2022-12-15T10:06:43;100008.89;;;-3.32;81.10
59417;BME280;45222;52.458;20.914;2022-12-15T10:10:39;100021.39;;;-3.38;80.82
59417;BME280;45222;52.458;20.914;2022-12-15T10:14:34;100024.68;;;-3.44;80.48
59417;BME280;45222;52.458;20.914;2022-12-15T10:18:25;100026.73;;;-3.52;80.29
59417;BME280;45222;52.458;20.914;2022-12-15T10:22:18;100031.26;;;-3.51;80.46
59417;BME280;45222;52.458;20.914;2022-12-15T10:26:18;100036.64;;;-3.52;80.45
59417;BME280;45222;52.458;20.914;2022-12-15T10:30:09;100038.56;;;-3.51;79.94
59417;BME280;45222;52.458;20.914;2022-12-15T10:34:03;100041.14;;;-3.57;80.05
59417;BME280;45222;52.458;20.914;2022-12-15T10:37:59;100046.85;;;-3.65;80.20
59417;BME280;45222;52.458;20.914;2022-12-15T10:41:47;100049.79;;;-3.67;79.90
59417;BME280;45222;52.458;20.914;2022-12-15T10:46:03;100053.41;;;-3.73;79.74
59417;BME280;45222;52.458;20.914;2022-12-15T10:49:52;100050.45;;;-3.72;79.50
59417;BME280;45222;52.458;20.914;2022-12-15T10:53:42;100062.95;;;-3.77;79.53
59417;BME280;45222;52.458;20.914;2022-12-15T10:57:31;100066.41;;;-3.82;79.40
59417;BME280;45222;52.458;20.914;2022-12-15T11:01:22;100071.91;;;-3.93;79.49
59417;BME280;45222;52.458;20.914;2022-12-15T11:05:17;100083.70;;;-3.97;79.50
59417;BME280;45222;52.458;20.914;2022-12-15T11:09:27;100088.52;;;-4.04;79.56
59417;BME280;45222;52.458;20.914;2022-12-15T11:13:20;100094.20;;;-4.11;79.48
59417;BME280;45222;52.458;20.914;2022-12-15T11:17:12;100096.45;;;-4.13;79.61
59417;BME280;45222;52.458;20.914;2022-12-15T11:21:03;100089.65;;;-4.17;79.74
59417;BME280;45222;52.458;20.914;2022-12-15T11:24:56;100093.64;;;-4.17;79.86
59417;BME280;45222;52.458;20.914;2022-12-15T11:28:49;100097.10;;;-4.19;79.82
59417;BME280;45222;52.458;20.914;2022-12-15T11:32:41;100111.13;;;-4.24;79.44
59417;BME280;45222;52.458;20.914;2022-12-15T11:36:46;100122.70;;;-4.31;79.76
59417;BME280;45222;52.458;20.914;2022-12-15T11:40:41;100132.23;;;-4.33;79.97
59417;BME280;45222;52.458;20.914;2022-12-15T11:44:35;100139.17;;;-4.35;80.03
59417;BME280;45222;52.458;20.914;2022-12-15T11:48:34;100141.25;;;-4.35;80.15
59417;BME280;45222;52.458;20.914;2022-12-15T11:52:37;100140.14;;;-4.43;79.90
59417;BME280;45222;52.458;20.914;2022-12-15T11:56:32;100141.98;;;-4.51;79.92
59417;BME280;45222;52.458;20.914;2022-12-15T12:00:21;100150.61;;;-4.54;80.43
59417;BME280;45222;52.458;20.914;2022-12-15T12:04:15;100154.41;;;-4.58;80.41
59417;BME280;45222;52.458;20.914;2022-12-15T12:08:14;100157.63;;;-4.65;80.72
59417;BME280;45222;52.458;20.914;2022-12-15T12:12:13;100157.77;;;-4.70;80.63
59417;BME280;45222;52.458;20.914;2022-12-15T12:16:08;100164.62;;;-4.76;80.91
59417;BME280;45222;52.458;20.914;2022-12-15T12:20:01;100169.36;;;-4.71;81.03
59417;BME280;45222;52.458;20.914;2022-12-15T12:23:55;100173.65;;;-4.76;80.87
59417;BME280;45222;52.458;20.914;2022-12-15T12:27:48;100180.55;;;-4.79;80.85
59417;BME280;45222;52.458;20.914;2022-12-15T12:31:45;100195.04;;;-4.88;81.00
59417;BME280;45222;52.458;20.914;2022-12-15T12:35:41;100197.58;;;-4.94;81.09
59417;BME280;45222;52.458;20.914;2022-12-15T12:39:32;100198.11;;;-4.91;81.18
59417;BME280;45222;52.458;20.914;2022-12-15T12:43:29;100205.58;;;-4.92;81.44
59417;BME280;45222;52.458;20.914;2022-12-15T12:47:22;100208.21;;;-4.90;81.48
59417;BME280;45222;52.458;20.914;2022-12-15T12:51:18;100215.14;;;-4.90;81.56
59417;BME280;45222;52.458;20.914;2022-12-15T12:55:23;100229.71;;;-4.91;81.42
59417;BME280;45222;52.458;20.914;2022-12-15T12:59:32;100235.16;;;-4.97;81.28
59417;BME280;45222;52.458;20.914;2022-12-15T13:03:22;100243.73;;;-5.06;81.33
59417;BME280;45222;52.458;20.914;2022-12-15T13:07:29;100243.48;;;-5.12;81.44
59417;BME280;45222;52.458;20.914;2022-12-15T13:11:53;100248.23;;;-5.19;81.39
59417;BME280;45222;52.458;20.914;2022-12-15T13:15:43;100250.59;;;-5.24;81.79
59417;BME280;45222;52.458;20.914;2022-12-15T13:24:15;100245.98;;;-5.19;81.85
59417;BME280;45222;52.458;20.914;2022-12-15T13:28:18;100252.45;;;-5.15;81.76
59417;BME280;45222;52.458;20.914;2022-12-15T13:32:27;100260.05;;;-5.18;81.62
59417;BME280;45222;52.458;20.914;2022-12-15T13:36:48;100275.42;;;-5.21;81.73
59417;BME280;45222;52.458;20.914;2022-12-15T13:40:52;100273.89;;;-5.31;81.48
59417;BME280;45222;52.458;20.914;2022-12-15T13:44:42;100277.25;;;-5.39;81.70
59417;BME280;45222;52.458;20.914;2022-12-15T13:48:34;100280.23;;;-5.37;81.83
59417;BME280;45222;52.458;20.914;2022-12-15T13:52:27;100286.16;;;-5.34;82.06
59417;BME280;45222;52.458;20.914;2022-12-15T13:56:25;100298.92;;;-5.38;82.14
59417;BME280;45222;52.458;20.914;2022-12-15T14:00:16;100300.96;;;-5.41;82.14
59417;BME280;45222;52.458;20.914;2022-12-15T14:04:09;100304.31;;;-5.49;82.05
59417;BME280;45222;52.458;20.914;2022-12-15T14:08:01;100305.16;;;-5.60;82.20
59417;BME280;45222;52.458;20.914;2022-12-15T14:11:53;100312.86;;;-5.67;82.25
59417;BME280;45222;52.458;20.914;2022-12-15T14:15:44;100316.97;;;-5.70;82.35
59417;BME280;45222;52.458;20.914;2022-12-15T14:19:43;100321.59;;;-5.73;82.43
59417;BME280;45222;52.458;20.914;2022-12-15T14:23:40;100321.89;;;-5.76;82.43
59417;BME280;45222;52.458;20.914;2022-12-15T14:27:31;100319.08;;;-5.79;82.52
59417;BME280;45222;52.458;20.914;2022-12-15T14:31:27;100320.47;;;-5.78;82.58
59417;BME280;45222;52.458;20.914;2022-12-15T14:35:24;100318.88;;;-5.69;82.88
59417;BME280;45222;52.458;20.914;2022-12-15T14:39:18;100318.98;;;-5.64;82.85
59417;BME280;45222;52.458;20.914;2022-12-15T14:43:11;100321.09;;;-5.61;82.99
59417;BME280;45222;52.458;20.914;2022-12-15T14:47:03;100320.41;;;-5.61;83.09
59417;BME280;45222;52.458;20.914;2022-12-15T14:50:52;100326.94;;;-5.65;82.82
59417;BME280;45222;52.458;20.914;2022-12-15T14:54:51;100324.90;;;-5.72;82.98
59417;BME280;45222;52.458;20.914;2022-12-15T14:58:40;100319.94;;;-5.78;82.98
59417;BME280;45222;52.458;20.914;2022-12-15T15:02:28;100326.26;;;-5.84;82.87
59417;BME280;45222;52.458;20.914;2022-12-15T15:06:18;100324.52;;;-5.84;83.16
59417;BME280;45222;52.458;20.914;2022-12-15T15:10:15;100323.84;;;-5.84;83.20
59417;BME280;45222;52.458;20.914;2022-12-15T15:14:11;100331.21;;;-5.88;83.35
59417;BME280;45222;52.458;20.914;2022-12-15T15:18:00;100348.08;;;-5.94;83.33
59417;BME280;45222;52.458;20.914;2022-12-15T15:21:47;100350.48;;;-5.95;83.10
59417;BME280;45222;52.458;20.914;2022-12-15T15:25:39;100355.39;;;-5.91;83.39
59417;BME280;45222;52.458;20.914;2022-12-15T15:29:38;100361.95;;;-5.83;83.48
59417;BME280;45222;52.458;20.914;2022-12-15T15:33:27;100373.25;;;-5.71;83.62
59417;BME280;45222;52.458;20.914;2022-12-15T15:37:19;100377.82;;;-5.58;83.52
59417;BME280;45222;52.458;20.914;2022-12-15T15:41:16;100382.17;;;-5.46;83.38
59417;BME280;45222;52.458;20.914;2022-12-15T15:45:08;100385.55;;;-5.40;83.21
59417;BME280;45222;52.458;20.914;2022-12-15T15:48:58;100384.14;;;-5.42;83.02
59417;BME280;45222;52.458;20.914;2022-12-15T15:52:48;100384.33;;;-5.41;82.99
59417;BME280;45222;52.458;20.914;2022-12-15T15:56:36;100389.49;;;-5.43;82.88
59417;BME280;45222;52.458;20.914;2022-12-15T16:00:25;100388.52;;;-5.49;82.94
59417;BME280;45222;52.458;20.914;2022-12-15T16:04:13;100395.56;;;-5.53;83.00
59417;BME280;45222;52.458;20.914;2022-12-15T16:08:01;100401.09;;;-5.53;82.93
59417;BME280;45222;52.458;20.914;2022-12-15T16:11:48;100405.47;;;-5.51;83.06
59417;BME280;45222;52.458;20.914;2022-12-15T16:15:36;100409.46;;;-5.41;83.11
59417;BME280;45222;52.458;20.914;2022-12-15T16:19:23;100421.56;;;-5.33;83.37
59417;BME280;45222;52.458;20.914;2022-12-15T16:23:15;100430.14;;;-5.27;83.36
59417;BME280;45222;52.458;20.914;2022-12-15T16:27:03;100443.09;;;-5.21;83.34
59417;BME280;45222;52.458;20.914;2022-12-15T16:30:51;100450.50;;;-5.23;83.20
59417;BME280;45222;52.458;20.914;2022-12-15T16:34:39;100457.51;;;-5.29;83.35
59417;BME280;45222;52.458;20.914;2022-12-15T16:38:29;100462.45;;;-5.34;83.13
59417;BME280;45222;52.458;20.914;2022-12-15T16:42:15;100464.92;;;-5.41;83.49
59417;BME280;45222;52.458;20.914;2022-12-15T16:46:03;100466.14;;;-5.41;83.62
59417;BME280;45222;52.458;20.914;2022-12-15T16:49:50;100474.50;;;-5.38;83.90
59417;BME280;45222;52.458;20.914;2022-12-15T16:53:40;100479.19;;;-5.37;84.08
59417;BME280;45222;52.458;20.914;2022-12-15T16:57:28;100483.33;;;-5.39;84.33
59417;BME280;45222;52.458;20.914;2022-12-15T17:01:16;100487.66;;;-5.40;84.51
59417;BME280;45222;52.458;20.914;2022-12-15T17:05:04;100490.43;;;-5.39;84.40
59417;BME280;45222;52.458;20.914;2022-12-15T17:08:53;100484.64;;;-5.44;84.38
59417;BME280;45222;52.458;20.914;2022-12-15T17:12:41;100489.94;;;-5.47;84.76
59417;BME280;45222;52.458;20.914;2022-12-15T17:16:29;100497.67;;;-5.51;84.95
59417;BME280;45222;52.458;20.914;2022-12-15T17:20:19;100501.02;;;-5.48;84.95
59417;BME280;45222;52.458;20.914;2022-12-15T17:24:09;100503.46;;;-5.47;85.21
59417;BME280;45222;52.458;20.914;2022-12-15T17:27:59;100500.96;;;-5.42;85.33
59417;BME280;45222;52.458;20.914;2022-12-15T17:31:46;100501.27;;;-5.34;85.48
59417;BME280;45222;52.458;20.914;2022-12-15T17:35:34;100500.52;;;-5.27;85.67
59417;BME280;45222;52.458;20.914;2022-12-15T17:39:22;100495.09;;;-5.21;85.76
59417;BME280;45222;52.458;20.914;2022-12-15T17:43:13;100493.30;;;-5.15;85.80
59417;BME280;45222;52.458;20.914;2022-12-15T17:47:01;100492.34;;;-5.10;85.50
59417;BME280;45222;52.458;20.914;2022-12-15T17:50:49;100496.45;;;-5.13;85.35
59417;BME280;45222;52.458;20.914;2022-12-15T17:54:37;100499.07;;;-5.12;85.49
59417;BME280;45222;52.458;20.914;2022-12-15T17:58:25;100501.33;;;-5.11;85.21
59417;BME280;45222;52.458;20.914;2022-12-15T18:02:13;100504.46;;;-5.10;85.33
59417;BME280;45222;52.458;20.914;2022-12-15T18:06:01;100501.67;;;-5.11;85.29
59417;BME280;45222;52.458;20.914;2022-12-15T18:09:50;100504.66;;;-5.09;85.12
59417;BME280;45222;52.458;20.914;2022-12-15T18:13:38;100501.27;;;-5.04;85.24
59417;BME280;45222;52.458;20.914;2022-12-15T18:17:25;100501.08;;;-4.96;85.32
59417;BME280;45222;52.458;20.914;2022-12-15T18:21:14;100499.67;;;-4.86;85.52
59417;BME280;45222;52.458;20.914;2022-12-15T18:25:05;100500.41;;;-4.73;85.75
59417;BME280;45222;52.458;20.914;2022-12-15T18:28:53;100503.98;;;-4.54;85.62
59417;BME280;45222;52.458;20.914;2022-12-15T18:32:40;100505.55;;;-4.42;85.57
59417;BME280;45222;52.458;20.914;2022-12-15T18:36:28;100509.48;;;-4.35;85.16
59417;BME280;45222;52.458;20.914;2022-12-15T18:40:17;100508.84;;;-4.31;84.56
59417;BME280;45222;52.458;20.914;2022-12-15T18:44:07;100508.97;;;-4.34;84.53
59417;BME280;45222;52.458;20.914;2022-12-15T18:47:55;100516.91;;;-4.37;84.44
59417;BME280;45222;52.458;20.914;2022-12-15T18:51:43;100518.08;;;-4.41;84.32
59417;BME280;45222;52.458;20.914;2022-12-15T18:55:32;100519.55;;;-4.46;83.92
59417;BME280;45222;52.458;20.914;2022-12-15T18:59:20;100523.91;;;-4.56;84.02
59417;BME280;45222;52.458;20.914;2022-12-15T19:03:08;100525.33;;;-4.66;84.01
59417;BME280;45222;52.458;20.914;2022-12-15T19:06:55;100526.05;;;-4.75;83.93
59417;BME280;45222;52.458;20.914;2022-12-15T19:10:48;100531.91;;;-4.77;84.09
59417;BME280;45222;52.458;20.914;2022-12-15T19:14:36;100546.88;;;-4.74;84.04
59417;BME280;45222;52.458;20.914;2022-12-15T19:18:26;100555.35;;;-4.65;84.56
59417;BME280;45222;52.458;20.914;2022-12-15T19:22:31;100553.33;;;-4.63;84.43
59417;BME280;45222;52.458;20.914;2022-12-15T19:26:18;100560.14;;;-4.60;84.13
59417;BME280;45222;52.458;20.914;2022-12-15T19:30:15;100557.31;;;-4.52;83.94
59417;BME280;45222;52.458;20.914;2022-12-15T19:34:03;100555.09;;;-4.50;83.90
59417;BME280;45222;52.458;20.914;2022-12-15T19:37:50;100555.84;;;-4.46;83.72
59417;BME280;45222;52.458;20.914;2022-12-15T19:41:40;100559.23;;;-4.39;83.60
59417;BME280;45222;52.458;20.914;2022-12-15T19:45:29;100557.49;;;-4.40;83.13
59417;BME280;45222;52.458;20.914;2022-12-15T19:49:17;100557.35;;;-4.38;83.00
59417;BME280;45222;52.458;20.914;2022-12-15T19:53:10;100554.11;;;-4.34;83.15
59417;BME280;45222;52.458;20.914;2022-12-15T19:56:58;100554.73;;;-4.27;83.05
59417;BME280;45222;52.458;20.914;2022-12-15T20:00:45;100560.92;;;-4.19;83.41
59417;BME280;45222;52.458;20.914;2022-12-15T20:04:33;100554.70;;;-4.05;83.46
59417;BME280;45222;52.458;20.914;2022-12-15T20:08:22;100560.83;;;-4.02;83.10
59417;BME280;45222;52.458;20.914;2022-12-15T20:12:16;100569.57;;;-4.10;82.50
59417;BME280;45222;52.458;20.914;2022-12-15T20:16:05;100565.69;;;-4.15;82.37
59417;BME280;45222;52.458;20.914;2022-12-15T20:19:52;100565.17;;;-4.14;82.88
59417;BME280;45222;52.458;20.914;2022-12-15T20:23:45;100564.30;;;-4.15;82.63